Time;durP1;ratioP1;P1;durP2;ratioP2;P2;SDS_P1;SDS_P2;PMS_P1;PMS_P2;Temp;Humidity;BMP_temperature;BMP_pressure;BME280_temperature;BME280_humidity;BME280_pressure;Samples;Min_cycle;Max_cycle;Signal;HPM_P1;HPM_P2
2023/07/20 00:02:22;;;;;;;;;;;;;;;18.58;62.31;99927.60;107573;1259;60189;-79
2023/07/20 00:04:49;;;;;;;;;;;;;;;18.52;62.39;99926.67;107481;1259;61927;-78
2023/07/20 00:07:15;;;;;;;;;;;;;;;18.41;62.84;99924.50;107472;1260;62721;-79
2023/07/20 00:09:44;;;;;;;;;;;;;;;18.34;63.12;99919.21;107544;1259;61975;-79
2023/07/20 00:12:11;;;;;;;;;;;;;;;18.33;63.21;99916.07;107576;1259;72921;-81
2023/07/20 00:14:37;;;;;;;;;;;;;;;18.41;63.05;99910.85;107575;1262;62024;-78
2023/07/20 00:17:03;;;;;;;;;;;;;;;18.42;63.08;99909.41;107536;1259;61955;-79
2023/07/20 00:19:32;;;;;;;;;;;;;;;18.43;63.16;99911.99;107493;1261;60840;-78
2023/07/20 00:21:59;;;;;;;;;;;;;;;18.42;63.04;99916.00;107561;1259;77763;-78
2023/07/20 00:24:27;;;;;;;;;;;;;;;18.41;63.06;99914.79;107514;1259;61936;-79
2023/07/20 00:26:53;;;;;;;;;;;;;;;18.40;63.15;99910.41;107489;1263;72631;-78
2023/07/20 00:29:21;;;;;;;;;;;;;;;18.37;63.14;99910.07;107526;1259;62161;-78
2023/07/20 00:31:49;;;;;;;;;;;;;;;18.33;63.17;99913.45;107597;1259;62195;-79
2023/07/20 00:34:19;;;;;;;;;;;;;;;18.28;63.30;99916.56;107583;1259;78757;-78
2023/07/20 02:35:59;;;;;;;;;;;;;;;17.27;65.46;99916.77;107603;1259;72467;-78
2023/07/20 02:38:31;;;;;;;;;;;;;;;17.21;65.58;99915.27;107553;1259;72053;-78
2023/07/20 02:40:57;;;;;;;;;;;;;;;17.17;65.74;99920.70;107500;1259;61959;-79
2023/07/20 02:43:24;;;;;;;;;;;;;;;17.11;65.87;99921.62;107598;1259;61971;-78
2023/07/20 02:45:53;;;;;;;;;;;;;;;17.07;66.08;99919.66;107642;1259;74042;-78
2023/07/20 02:48:19;;;;;;;;;;;;;;;17.04;66.36;99919.66;107606;1262;72869;-79
2023/07/20 02:50:47;;;;;;;;;;;;;;;17.00;66.60;99916.33;107595;1259;72727;-78
2023/07/20 02:53:14;;;;;;;;;;;;;;;17.00;66.87;99912.48;107564;1259;62127;-78
2023/07/20 02:55:44;;;;;;;;;;;;;;;17.03;66.91;99910.95;107661;1259;62149;-79
2023/07/20 02:58:11;;;;;;;;;;;;;;;17.07;66.83;99913.64;107603;1259;62047;-79
2023/07/20 03:00:38;;;;;;;;;;;;;;;17.11;66.85;99910.54;107579;1259;73068;-79
2023/07/20 03:03:09;;;;;;;;;;;;;;;17.15;66.88;99910.55;107492;1260;72805;-78
2023/07/20 03:05:40;;;;;;;;;;;;;;;17.18;66.81;99906.52;107628;1259;61976;-80
2023/07/20 03:08:09;;;;;;;;;;;;;;;17.22;66.69;99906.06;107637;1262;61959;-80
2023/07/20 03:10:42;;;;;;;;;;;;;;;17.24;66.74;99906.80;107639;1259;75164;-77
2023/07/20 03:13:09;;;;;;;;;;;;;;;17.28;66.85;99902.92;107566;1259;72666;-79
2023/07/20 03:15:37;;;;;;;;;;;;;;;17.36;66.92;99903.30;107684;1259;73505;-78
2023/07/20 03:18:04;;;;;;;;;;;;;;;17.43;66.97;99905.37;107601;1260;62366;-78
2023/07/20 03:20:32;;;;;;;;;;;;;;;17.49;67.01;99908.20;107621;1259;62149;-78
2023/07/20 03:22:59;;;;;;;;;;;;;;;17.56;67.07;99908.82;107557;1259;75497;-78
2023/07/20 03:25:26;;;;;;;;;;;;;;;17.62;67.01;99909.08;107644;1260;72601;-78
2023/07/20 03:27:55;;;;;;;;;;;;;;;17.68;67.06;99909.52;107560;1259;70174;-79
2023/07/20 03:30:23;;;;;;;;;;;;;;;17.73;67.11;99909.59;107507;1260;61911;-78
2023/07/20 03:32:50;;;;;;;;;;;;;;;17.78;67.19;99909.03;107636;1259;61975;-79
2023/07/20 03:35:17;;;;;;;;;;;;;;;17.89;67.14;99904.86;107570;1259;75171;-78
2023/07/20 03:37:46;;;;;;;;;;;;;;;18.03;67.14;99902.88;107622;1258;72592;-79
2023/07/20 03:40:30;;;;;;;;;;;;;;;18.19;66.90;99903.52;107599;1263;71425;-78
2023/07/20 03:43:04;;;;;;;;;;;;;;;18.35;66.56;99902.64;107548;1259;61751;-78
2023/07/20 03:45:35;;;;;;;;;;;;;;;18.45;66.43;99904.38;107667;1259;61979;-81
2023/07/20 03:48:12;;;;;;;;;;;;;;;18.62;65.98;99902.48;107614;1259;74222;-79
2023/07/20 03:50:46;;;;;;;;;;;;;;;18.71;65.51;99900.54;107639;1259;74382;-79
2023/07/20 03:53:16;;;;;;;;;;;;;;;18.73;64.90;99901.70;107451;1259;73708;-79
2023/07/20 03:55:59;;;;;;;;;;;;;;;18.69;64.99;99900.80;107642;1259;62921;-79
2023/07/20 03:58:46;;;;;;;;;;;;;;;18.77;64.82;99902.94;107614;1259;61998;-78
2023/07/20 04:01:13;;;;;;;;;;;;;;;18.84;64.60;99905.29;107597;1259;74039;-79
2023/07/20 04:03:40;;;;;;;;;;;;;;;18.97;64.49;99905.31;107545;1259;73747;-76
2023/07/20 04:06:08;;;;;;;;;;;;;;;19.12;64.56;99906.35;107502;1259;72908;-79
2023/07/20 04:08:35;;;;;;;;;;;;;;;19.29;64.38;99902.04;107683;1259;61978;-79
2023/07/20 04:11:03;;;;;;;;;;;;;;;19.42;64.16;99895.45;107675;1259;62551;-78
2023/07/20 04:13:33;;;;;;;;;;;;;;;19.54;63.92;99900.85;107520;1259;75532;-79
2023/07/20 04:16:00;;;;;;;;;;;;;;;19.67;63.84;99898.38;107565;1259;74592;-79
2023/07/20 04:18:27;;;;;;;;;;;;;;;19.81;63.73;99900.40;107559;1259;72640;-79
2023/07/20 04:20:54;;;;;;;;;;;;;;;19.95;63.60;99907.33;107527;1261;61979;-79
2023/07/20 04:23:21;;;;;;;;;;;;;;;20.06;62.93;99911.64;107585;1260;61969;-76
2023/07/20 04:25:51;;;;;;;;;;;;;;;20.14;62.78;99906.95;107632;1259;75255;-78
2023/07/20 04:28:18;;;;;;;;;;;;;;;20.24;62.67;99907.89;107491;1259;72708;-78
2023/07/20 04:30:49;;;;;;;;;;;;;;;20.37;62.80;99907.46;107551;1263;71442;-78
2023/07/20 04:33:18;;;;;;;;;;;;;;;20.51;63.02;99904.73;107506;1259;62077;-78
2023/07/20 04:35:46;;;;;;;;;;;;;;;20.65;63.04;99906.22;107579;1259;61307;-79
2023/07/20 04:38:17;;;;;;;;;;;;;;;20.81;63.07;99900.73;107607;1260;76762;-78
2023/07/20 04:40:45;;;;;;;;;;;;;;;20.94;62.76;99897.77;107554;1259;71682;-78
2023/07/20 04:43:13;;;;;;;;;;;;;;;21.05;62.38;99900.60;107573;1259;72905;-78
2023/07/20 04:45:40;;;;;;;;;;;;;;;21.16;62.30;99900.43;107600;1262;62093;-78
2023/07/20 04:48:11;;;;;;;;;;;;;;;21.28;62.40;99900.94;107646;1261;62004;-78
2023/07/20 04:50:44;;;;;;;;;;;;;;;21.37;62.40;99901.76;107647;1259;75554;-78
2023/07/20 04:53:12;;;;;;;;;;;;;;;21.51;62.25;99904.57;107535;1259;72794;-77
2023/07/20 04:55:39;;;;;;;;;;;;;;;21.61;61.95;99905.99;107494;1259;72703;-77
2023/07/20 04:58:07;;;;;;;;;;;;;;;21.70;61.62;99903.82;107610;1263;63302;-77
2023/07/20 05:00:35;;;;;;;;;;;;;;;21.80;61.48;99902.31;107506;1259;63535;-77
2023/07/20 05:03:02;;;;;;;;;;;;;;;21.89;61.67;99900.69;107567;1259;75473;-78
2023/07/20 05:05:29;;;;;;;;;;;;;;;21.99;61.27;99901.33;107528;1259;73205;-78
2023/07/20 05:07:56;;;;;;;;;;;;;;;22.07;61.03;99900.14;107574;1259;71686;-79
2023/07/20 05:10:23;;;;;;;;;;;;;;;22.22;60.94;99899.45;107602;1259;61987;-79
2023/07/20 05:12:50;;;;;;;;;;;;;;;22.39;60.80;99898.77;107516;1259;62079;-79
2023/07/20 05:15:18;;;;;;;;;;;;;;;22.58;60.30;99900.31;107543;1259;75355;-78
2023/07/20 05:17:45;;;;;;;;;;;;;;;22.77;59.74;99900.98;107612;1259;72848;-79
2023/07/20 05:20:12;;;;;;;;;;;;;;;22.98;58.84;99896.69;107636;1259;72641;-79
2023/07/20 05:22:41;;;;;;;;;;;;;;;23.15;57.85;99893.01;107651;1259;62105;-78
2023/07/20 05:25:08;;;;;;;;;;;;;;;23.30;57.10;99889.20;107478;1259;60194;-78
2023/07/20 05:27:38;;;;;;;;;;;;;;;23.43;56.42;99883.36;107572;1259;75238;-77
2023/07/20 05:30:07;;;;;;;;;;;;;;;23.53;55.64;99880.38;107570;1259;72916;-78
2023/07/20 05:32:34;;;;;;;;;;;;;;;23.63;55.18;99877.05;107540;1259;70749;-77
2023/07/20 05:35:01;;;;;;;;;;;;;;;23.73;54.63;99866.67;107568;1258;62666;-78
2023/07/20 05:37:29;;;;;;;;;;;;;;;23.84;54.49;99866.32;107557;1259;61917;-76
2023/07/20 05:39:56;;;;;;;;;;;;;;;23.96;54.48;99863.31;107604;1259;75554;-78
2023/07/20 05:42:22;;;;;;;;;;;;;;;24.11;54.34;99866.14;107629;1260;72986;-79
2023/07/20 05:44:52;;;;;;;;;;;;;;;24.25;54.20;99870.98;107690;1259;72679;-78
2023/07/20 05:47:19;;;;;;;;;;;;;;;24.38;53.90;99866.89;107689;1259;61910;-78
2023/07/20 05:49:46;;;;;;;;;;;;;;;24.48;53.49;99861.84;107638;1259;61965;-78
2023/07/20 05:52:13;;;;;;;;;;;;;;;24.60;53.29;99855.53;107660;1259;75304;-78
2023/07/20 05:54:40;;;;;;;;;;;;;;;24.71;53.12;99854.13;107639;1258;73098;-78
2023/07/20 05:57:10;;;;;;;;;;;;;;;24.85;52.67;99851.81;107644;1259;71203;-78
2023/07/20 05:59:56;;;;;;;;;;;;;;;25.00;52.01;99850.90;107583;1259;62008;-77
2023/07/20 06:02:23;;;;;;;;;;;;;;;25.10;51.24;99849.73;107480;1261;61930;-77
2023/07/20 06:04:50;;;;;;;;;;;;;;;25.21;50.57;99851.51;107660;1259;75583;-77
2023/07/20 06:07:19;;;;;;;;;;;;;;;25.31;50.09;99854.20;107701;1261;73808;-77
2023/07/20 06:09:53;;;;;;;;;;;;;;;25.45;50.07;99853.48;107684;1263;72603;-77
2023/07/20 06:12:22;;;;;;;;;;;;;;;25.59;49.92;99858.09;107708;1259;62073;-77
2023/07/20 06:14:49;;;;;;;;;;;;;;;25.73;48.93;99859.64;107631;1259;61994;-77
2023/07/20 06:17:19;;;;;;;;;;;;;;;25.84;48.27;99859.52;107520;1259;75153;-77
2023/07/20 06:19:46;;;;;;;;;;;;;;;25.92;48.31;99860.61;107614;1259;72612;-77
2023/07/20 06:22:12;;;;;;;;;;;;;;;26.01;48.55;99858.48;107713;1263;71763;-78
2023/07/20 06:24:39;;;;;;;;;;;;;;;26.07;48.20;99858.09;107592;1259;62060;-78
2023/07/20 06:27:06;;;;;;;;;;;;;;;26.18;47.80;99854.50;107639;1259;61949;-78
2023/07/20 06:29:33;;;;;;;;;;;;;;;26.30;47.39;99852.16;107653;1259;75567;-78
2023/07/20 06:31:59;;;;;;;;;;;;;;;26.39;47.01;99848.00;107676;1259;72516;-78
2023/07/20 06:34:29;;;;;;;;;;;;;;;26.50;46.60;99846.76;107584;1259;72675;-76
2023/07/20 06:36:56;;;;;;;;;;;;;;;26.61;46.32;99846.98;107679;1260;62071;-77
2023/07/20 06:39:23;;;;;;;;;;;;;;;26.70;44.73;99847.19;107664;1259;61898;-79
2023/07/20 06:41:53;;;;;;;;;;;;;;;26.80;44.16;99850.45;107538;1259;78057;-76
2023/07/20 06:44:22;;;;;;;;;;;;;;;26.90;43.43;99856.60;107560;1259;72608;-76
2023/07/20 06:46:49;;;;;;;;;;;;;;;26.98;42.17;99852.48;107535;1259;72646;-77
2023/07/20 06:49:25;;;;;;;;;;;;;;;27.04;41.70;99859.95;107444;1264;61897;-77
2023/07/20 06:51:52;;;;;;;;;;;;;;;27.14;41.70;99866.67;107529;1259;61920;-77
2023/07/20 06:54:22;;;;;;;;;;;;;;;27.21;41.32;99868.58;107574;1263;74063;-77
2023/07/20 06:56:52;;;;;;;;;;;;;;;27.27;41.40;99870.65;107633;1259;72920;-77
2023/07/20 06:59:24;;;;;;;;;;;;;;;27.37;41.22;99872.64;107558;1259;72525;-77
2023/07/20 07:01:53;;;;;;;;;;;;;;;27.45;41.44;99868.52;107597;1260;61878;-77
2023/07/20 07:04:23;;;;;;;;;;;;;;;27.54;41.07;99862.80;107661;1259;61939;-77
2023/07/20 07:06:52;;;;;;;;;;;;;;;27.63;41.13;99861.48;107686;1263;74078;-77
2023/07/20 07:09:20;;;;;;;;;;;;;;;27.74;41.70;99864.80;107655;1259;71467;-77
2023/07/20 07:11:47;;;;;;;;;;;;;;;27.85;41.27;99865.62;107675;1259;72668;-77
2023/07/20 07:14:14;;;;;;;;;;;;;;;27.92;40.91;99866.73;107671;1259;61968;-77
2023/07/20 07:16:42;;;;;;;;;;;;;;;27.97;40.54;99861.23;107687;1259;62058;-77
2023/07/20 07:19:09;;;;;;;;;;;;;;;27.99;40.54;99866.10;107583;1259;75963;-77
2023/07/20 07:21:36;;;;;;;;;;;;;;;28.02;40.52;99863.75;107684;1259;73306;-77
2023/07/20 07:24:03;;;;;;;;;;;;;;;28.10;40.58;99856.61;107595;1259;73037;-77
2023/07/20 07:26:30;;;;;;;;;;;;;;;28.19;40.41;99853.39;107572;1259;60820;-78
2023/07/20 07:28:57;;;;;;;;;;;;;;;28.29;40.08;99852.35;107699;1262;61969;-77
2023/07/20 07:31:28;;;;;;;;;;;;;;;28.37;39.15;99851.65;107582;1262;66817;-77
2023/07/20 07:33:55;;;;;;;;;;;;;;;28.42;37.92;99849.70;107675;1259;65215;-78
2023/07/20 07:36:24;;;;;;;;;;;;;;;28.42;38.00;99847.83;107665;1259;73185;-77
2023/07/20 07:38:54;;;;;;;;;;;;;;;28.48;37.37;99843.96;107506;1259;62534;-78
2023/07/20 07:41:24;;;;;;;;;;;;;;;28.57;37.70;99843.08;107678;1259;62071;-78
2023/07/20 07:43:54;;;;;;;;;;;;;;;28.63;37.58;99844.23;107553;1262;74275;-79
2023/07/20 07:46:21;;;;;;;;;;;;;;;28.76;37.37;99844.83;107649;1259;72600;-77
2023/07/20 07:48:49;;;;;;;;;;;;;;;28.83;37.14;99837.81;107728;1259;63878;-77
2023/07/20 07:51:16;;;;;;;;;;;;;;;28.93;36.97;99833.30;107679;1259;62118;-77
2023/07/20 07:53:43;;;;;;;;;;;;;;;29.00;36.21;99834.15;107699;1261;61961;-77
2023/07/20 07:56:10;;;;;;;;;;;;;;;29.07;34.71;99832.09;107666;1261;75379;-77
2023/07/20 07:58:37;;;;;;;;;;;;;;;29.02;33.95;99831.63;107630;1262;63914;-77
2023/07/20 08:01:04;;;;;;;;;;;;;;;29.02;33.95;99832.34;107634;1259;71366;-77
2023/07/20 08:03:31;;;;;;;;;;;;;;;29.08;34.08;99835.61;107632;1259;61924;-76
2023/07/20 08:05:59;;;;;;;;;;;;;;;29.15;33.71;99834.64;107705;1260;60391;-76
2023/07/20 08:08:26;;;;;;;;;;;;;;;29.18;33.74;99836.11;107668;1263;66709;-76
2023/07/20 08:10:55;;;;;;;;;;;;;;;29.24;33.60;99838.20;107681;1260;64268;-77
2023/07/20 08:13:22;;;;;;;;;;;;;;;29.31;32.96;99837.30;107712;1263;63845;-77
2023/07/20 08:15:50;;;;;;;;;;;;;;;29.38;33.01;99841.35;107642;1259;62082;-76
2023/07/20 08:18:16;;;;;;;;;;;;;;;29.47;33.54;99839.64;107652;1259;61965;-77
2023/07/20 08:20:44;;;;;;;;;;;;;;;29.55;33.21;99843.75;107675;1259;66879;-76
2023/07/20 08:23:12;;;;;;;;;;;;;;;29.66;32.94;99843.30;107654;1259;63948;-76
2023/07/20 08:25:41;;;;;;;;;;;;;;;29.75;32.33;99845.15;107679;1259;64169;-77
2023/07/20 08:28:09;;;;;;;;;;;;;;;29.80;32.64;99845.17;107708;1259;62070;-77
2023/07/20 08:30:41;;;;;;;;;;;;;;;29.90;32.51;99846.11;107583;1259;62021;-77
2023/07/20 08:33:19;;;;;;;;;;;;;;;30.03;31.42;99838.70;107704;1259;66773;-77
2023/07/20 08:35:46;;;;;;;;;;;;;;;30.08;31.04;99833.39;107680;1259;63844;-78
2023/07/20 08:38:13;;;;;;;;;;;;;;;30.16;31.38;99828.77;107593;1259;63888;-77
2023/07/20 08:40:41;;;;;;;;;;;;;;;30.26;31.30;99823.48;107690;1259;62236;-78
2023/07/20 08:43:08;;;;;;;;;;;;;;;30.33;31.02;99822.87;107717;1259;61849;-77
2023/07/20 08:45:36;;;;;;;;;;;;;;;30.41;30.98;99826.80;107648;1259;66739;-78
2023/07/20 08:48:04;;;;;;;;;;;;;;;30.51;30.63;99824.16;107568;1267;64203;-77
2023/07/20 08:50:32;;;;;;;;;;;;;;;30.62;30.44;99821.20;107672;1260;64072;-77
2023/07/20 08:52:59;;;;;;;;;;;;;;;30.67;30.43;99823.05;107670;1259;62099;-76
2023/07/20 08:55:26;;;;;;;;;;;;;;;30.66;30.44;99821.57;107664;1260;61962;-76
2023/07/20 08:57:54;;;;;;;;;;;;;;;30.70;30.61;99820.73;107697;1260;66707;-77
2023/07/20 09:00:21;;;;;;;;;;;;;;;30.74;30.43;99820.92;107658;1260;64141;-76
2023/07/20 09:02:52;;;;;;;;;;;;;;;30.79;30.47;99822.39;107701;1263;64077;-76
2023/07/20 09:05:20;;;;;;;;;;;;;;;30.87;30.46;99818.04;107615;1261;61990;-77
2023/07/20 09:07:47;;;;;;;;;;;;;;;30.99;30.39;99812.52;107600;1259;60836;-78
2023/07/20 09:10:14;;;;;;;;;;;;;;;31.10;30.01;99810.64;107664;1259;66647;-76
2023/07/20 09:12:42;;;;;;;;;;;;;;;31.18;29.27;99806.27;107663;1259;64204;-78
2023/07/20 09:15:10;;;;;;;;;;;;;;;31.21;29.16;99810.33;107670;1259;65163;-78
2023/07/20 09:17:40;;;;;;;;;;;;;;;31.23;29.00;99806.45;107668;1259;61930;-78
2023/07/20 09:20:10;;;;;;;;;;;;;;;31.25;28.22;99800.96;107710;1261;62075;-77
2023/07/20 09:22:40;;;;;;;;;;;;;;;31.27;28.36;99802.45;107642;1263;66785;-79
2023/07/20 09:25:07;;;;;;;;;;;;;;;31.36;27.92;99798.55;107681;1259;63869;-79
2023/07/20 09:27:38;;;;;;;;;;;;;;;31.43;27.68;99795.77;107614;1263;64112;-79
2023/07/20 09:30:06;;;;;;;;;;;;;;;31.55;27.47;99794.95;107687;1259;61927;-77
2023/07/20 09:32:44;;;;;;;;;;;;;;;31.57;26.73;99795.32;107564;1260;62028;-77
2023/07/20 09:35:18;;;;;;;;;;;;;;;31.56;24.90;99791.39;107704;1259;66836;-77
2023/07/20 09:37:54;;;;;;;;;;;;;;;31.50;24.42;99796.21;107739;1261;64128;-77
2023/07/20 09:40:41;;;;;;;;;;;;;;;31.47;25.28;99793.34;107731;1259;62693;-78
2023/07/20 09:43:11;;;;;;;;;;;;;;;31.42;25.09;99791.37;107669;1260;62065;-77
2023/07/20 09:45:42;;;;;;;;;;;;;;;31.38;25.00;99789.54;107648;1259;62063;-77
2023/07/20 09:48:15;;;;;;;;;;;;;;;31.30;25.26;99789.09;107513;1263;66727;-77
2023/07/20 09:50:51;;;;;;;;;;;;;;;31.23;26.02;99789.80;107611;1263;62782;-77
2023/07/20 09:53:20;;;;;;;;;;;;;;;31.30;26.65;99788.38;107572;1263;63953;-77
2023/07/20 09:55:50;;;;;;;;;;;;;;;31.43;26.82;99788.67;107608;1265;62040;-77
2023/07/20 09:58:17;;;;;;;;;;;;;;;31.60;26.57;99786.35;107610;1260;61968;-77
2023/07/20 10:00:46;;;;;;;;;;;;;;;31.76;26.78;99786.90;107733;1259;66860;-78
2023/07/20 10:03:22;;;;;;;;;;;;;;;31.89;26.43;99785.66;107671;1263;63871;-78
2023/07/20 10:06:04;;;;;;;;;;;;;;;31.99;26.33;99785.72;107688;1261;64305;-78
2023/07/20 10:08:33;;;;;;;;;;;;;;;32.13;26.27;99781.91;107600;1259;60503;-77
2023/07/20 10:11:05;;;;;;;;;;;;;;;32.22;25.83;99781.45;107664;1261;61923;-77
2023/07/20 10:13:39;;;;;;;;;;;;;;;32.31;25.36;99778.43;107593;1261;66767;-78
2023/07/20 10:16:12;;;;;;;;;;;;;;;32.32;25.29;99776.77;107682;1260;64168;-77
2023/07/20 10:18:41;;;;;;;;;;;;;;;32.30;25.67;99776.00;107644;1259;64312;-77
2023/07/20 10:21:08;;;;;;;;;;;;;;;32.41;25.74;99768.46;107644;1261;61966;-78
2023/07/20 10:23:38;;;;;;;;;;;;;;;32.57;25.30;99764.05;107674;1260;61958;-76
2023/07/20 10:26:05;;;;;;;;;;;;;;;32.73;25.52;99761.50;107446;1261;66857;-76
2023/07/20 10:28:32;;;;;;;;;;;;;;;32.79;25.39;99763.42;107693;1259;64146;-77
2023/07/20 10:30:59;;;;;;;;;;;;;;;32.84;25.76;99760.48;107590;1260;64037;-76
2023/07/20 10:33:27;;;;;;;;;;;;;;;32.91;26.28;99758.42;107652;1261;61966;-77
2023/07/20 10:35:55;;;;;;;;;;;;;;;33.04;26.61;99756.64;107651;1260;59451;-77
2023/07/20 10:38:42;;;;;;;;;;;;;;;33.18;26.43;99753.75;107686;1260;66796;-76
2023/07/20 10:41:25;;;;;;;;;;;;;;;33.26;26.31;99753.15;107499;1264;64355;-78
2023/07/20 10:43:57;;;;;;;;;;;;;;;33.30;25.91;99750.59;107529;1260;64113;-79
2023/07/20 10:46:34;;;;;;;;;;;;;;;33.27;25.35;99744.42;107620;1260;61956;-78
2023/07/20 10:49:02;;;;;;;;;;;;;;;33.41;25.58;99740.67;107571;1263;62016;-78
2023/07/20 10:51:29;;;;;;;;;;;;;;;33.29;25.22;99740.52;107672;1262;66935;-77
2023/07/20 10:53:58;;;;;;;;;;;;;;;33.28;25.20;99740.92;107657;1260;64005;-77
2023/07/20 10:56:32;;;;;;;;;;;;;;;33.14;25.38;99736.92;107661;1263;64255;-78
2023/07/20 10:59:02;;;;;;;;;;;;;;;33.00;25.47;99739.51;107583;1263;60385;-78
2023/07/20 11:01:32;;;;;;;;;;;;;;;32.89;25.93;99729.77;107649;1260;62646;-77
2023/07/20 11:04:00;;;;;;;;;;;;;;;32.84;25.80;99725.87;107717;1261;65429;-77
2023/07/20 11:06:28;;;;;;;;;;;;;;;32.80;25.65;99722.55;107716;1260;65493;-78
2023/07/20 11:08:55;;;;;;;;;;;;;;;32.82;25.84;99723.45;107616;1263;64207;-77
2023/07/20 11:11:23;;;;;;;;;;;;;;;33.00;25.99;99722.75;107591;1263;62000;-78
2023/07/20 11:13:57;;;;;;;;;;;;;;;33.14;25.96;99713.98;107662;1261;61969;-77
2023/07/20 11:16:45;;;;;;;;;;;;;;;33.05;25.83;99715.21;107700;1260;65567;-78
2023/07/20 11:19:17;;;;;;;;;;;;;;;32.79;26.24;99713.50;107676;1261;62933;-78
2023/07/20 11:21:50;;;;;;;;;;;;;;;32.72;26.05;99715.93;107680;1263;63957;-77
2023/07/20 11:24:28;;;;;;;;;;;;;;;32.69;26.10;99712.05;107704;1261;59587;-78
2023/07/20 11:26:56;;;;;;;;;;;;;;;32.77;26.58;99710.53;107670;1264;62162;-78
2023/07/20 11:29:25;;;;;;;;;;;;;;;32.92;26.51;99708.00;107662;1261;66837;-79
2023/07/20 11:32:00;;;;;;;;;;;;;;;33.09;26.34;99709.13;107664;1260;64114;-78
2023/07/20 11:34:27;;;;;;;;;;;;;;;33.17;25.84;99709.89;107646;1259;63918;-78
2023/07/20 11:36:55;;;;;;;;;;;;;;;33.13;25.53;99708.95;103747;1260;5292984;-78
2023/07/20 11:39:31;;;;;;;;;;;;;;;33.13;25.50;99705.05;107688;1261;61293;-78
2023/07/20 11:42:13;;;;;;;;;;;;;;;33.20;26.11;99702.21;107597;1260;66996;-77
2023/07/20 11:45:05;;;;;;;;;;;;;;;33.32;26.10;99697.73;107595;1260;64243;-79
2023/07/20 11:47:32;;;;;;;;;;;;;;;33.32;25.67;99691.64;107658;1260;65423;-78
2023/07/20 11:50:02;;;;;;;;;;;;;;;33.29;25.68;99686.02;107625;1259;61952;-78
2023/07/20 11:52:30;;;;;;;;;;;;;;;33.31;25.81;99683.61;107665;1264;61940;-78
2023/07/20 11:54:57;;;;;;;;;;;;;;;33.42;25.89;99682.55;107640;1263;66773;-77
2023/07/20 11:57:33;;;;;;;;;;;;;;;33.52;25.59;99670.27;107631;1263;63171;-77
2023/07/20 12:00:03;;;;;;;;;;;;;;;33.58;25.38;99661.65;107684;1260;62628;-77
2023/07/20 12:02:32;;;;;;;;;;;;;;;33.63;25.98;99658.21;107526;1261;59331;-76
2023/07/20 12:05:03;;;;;;;;;;;;;;;33.68;25.76;99654.36;107505;1261;61099;-76
2023/07/20 12:07:34;;;;;;;;;;;;;;;33.72;25.10;99653.69;107585;1260;65731;-78
2023/07/20 12:10:07;;;;;;;;;;;;;;;33.70;25.07;99647.27;107620;1264;62774;-77
2023/07/20 12:12:35;;;;;;;;;;;;;;;33.58;25.28;99644.41;107644;1261;73954;-77
2023/07/20 12:15:21;;;;;;;;;;;;;;;33.43;25.71;99641.45;107648;1259;61944;-79
2023/07/20 12:17:52;;;;;;;;;;;;;;;33.42;25.98;99640.80;107659;1261;62015;-78
2023/07/20 12:20:32;;;;;;;;;;;;;;;33.50;25.73;99636.02;107696;1263;65417;-77
2023/07/20 12:23:04;;;;;;;;;;;;;;;33.54;25.43;99638.20;107662;1261;64170;-77
2023/07/20 12:25:53;;;;;;;;;;;;;;;33.53;25.31;99634.91;107623;1263;64852;-77
2023/07/20 12:28:20;;;;;;;;;;;;;;;33.55;25.81;99625.03;107633;1263;61936;-77
2023/07/20 12:30:56;;;;;;;;;;;;;;;33.57;25.78;99615.56;107534;1259;62029;-77
2023/07/20 12:33:23;;;;;;;;;;;;;;;33.54;26.26;99616.38;107719;1262;68142;-77
2023/07/20 12:35:49;;;;;;;;;;;;;;;33.51;26.54;99608.62;107636;1260;63863;-77
2023/07/20 12:38:16;;;;;;;;;;;;;;;33.50;26.38;99602.55;107532;1260;64129;-77
2023/07/20 12:40:43;;;;;;;;;;;;;;;33.49;26.18;99601.79;107650;1260;62056;-78
2023/07/20 12:43:10;;;;;;;;;;;;;;;33.53;26.63;99596.06;107587;1259;60203;-78
2023/07/20 12:45:37;;;;;;;;;;;;;;;33.61;26.79;99593.79;107666;1258;66756;-78
2023/07/20 12:48:05;;;;;;;;;;;;;;;33.65;26.37;99592.25;107637;1260;64007;-78
2023/07/20 12:50:33;;;;;;;;;;;;;;;33.68;25.90;99587.64;107654;1261;63961;-77
2023/07/20 12:53:00;;;;;;;;;;;;;;;33.69;25.85;99583.98;107624;1260;62013;-78
2023/07/20 12:55:26;;;;;;;;;;;;;;;33.72;25.77;99582.08;107670;1263;61929;-78
2023/07/20 12:57:55;;;;;;;;;;;;;;;33.73;25.34;99575.73;107729;1263;66995;-78
2023/07/20 13:00:22;;;;;;;;;;;;;;;33.73;25.49;99573.10;107679;1260;63928;-78
2023/07/20 13:02:50;;;;;;;;;;;;;;;33.75;25.74;99573.84;107643;1260;63835;-78
2023/07/20 13:05:35;;;;;;;;;;;;;;;33.81;25.69;99571.75;107632;1260;62828;-78
2023/07/20 13:08:06;;;;;;;;;;;;;;;33.91;25.42;99570.86;107617;1263;60132;-78
2023/07/20 13:10:35;;;;;;;;;;;;;;;33.98;25.47;99565.84;107727;1260;65649;-79
2023/07/20 13:13:02;;;;;;;;;;;;;;;33.98;25.62;99562.97;107661;1263;64194;-78
2023/07/20 13:15:31;;;;;;;;;;;;;;;33.91;25.47;99566.92;107613;1260;62864;-78
2023/07/20 13:17:58;;;;;;;;;;;;;;;33.84;25.71;99567.73;107614;1260;62065;-78
2023/07/20 13:20:25;;;;;;;;;;;;;;;33.82;25.46;99564.70;107558;1260;61972;-78
2023/07/20 13:22:53;;;;;;;;;;;;;;;33.78;25.22;99565.21;107664;1260;66664;-78
2023/07/20 13:25:20;;;;;;;;;;;;;;;33.73;25.29;99560.39;107581;1260;64471;-79
2023/07/20 13:27:48;;;;;;;;;;;;;;;33.72;25.28;99555.48;107650;1259;63885;-78
2023/07/20 13:30:16;;;;;;;;;;;;;;;33.79;25.17;99553.56;107666;1260;60198;-77
2023/07/20 13:32:46;;;;;;;;;;;;;;;33.87;25.07;99546.05;107727;1260;62166;-77
2023/07/20 13:35:13;;;;;;;;;;;;;;;33.96;25.29;99546.02;107631;1259;66566;-77
2023/07/20 13:37:41;;;;;;;;;;;;;;;33.98;25.34;99546.50;107690;1259;62695;-78
2023/07/20 13:40:12;;;;;;;;;;;;;;;34.01;25.40;99544.94;107622;1261;62817;-77
2023/07/20 13:42:40;;;;;;;;;;;;;;;34.07;25.55;99543.26;107675;1260;62047;-77
2023/07/20 13:45:07;;;;;;;;;;;;;;;34.16;25.51;99534.98;107740;1260;61927;-78
2023/07/20 13:47:34;;;;;;;;;;;;;;;34.26;25.48;99535.39;107628;1260;66673;-78
2023/07/20 13:50:04;;;;;;;;;;;;;;;34.40;25.60;99535.04;107723;1259;63863;-77
2023/07/20 13:52:32;;;;;;;;;;;;;;;34.42;24.84;99531.88;107656;1259;62881;-77
2023/07/20 13:55:22;;;;;;;;;;;;;;;34.38;24.65;99529.49;107554;1266;62214;-77
2023/07/20 13:57:54;;;;;;;;;;;;;;;34.33;25.04;99524.02;107644;1262;62002;-79
2023/07/20 14:00:21;;;;;;;;;;;;;;;34.31;25.22;99518.21;107631;1261;66824;-76
2023/07/20 14:02:50;;;;;;;;;;;;;;;34.26;25.45;99513.45;107597;1262;62941;-78
2023/07/20 14:05:19;;;;;;;;;;;;;;;34.27;25.44;99504.14;107627;1264;64060;-77
2023/07/20 14:07:50;;;;;;;;;;;;;;;34.26;25.15;99498.56;107525;1262;62232;-77
2023/07/20 14:10:16;;;;;;;;;;;;;;;34.17;25.31;99497.29;107525;1263;61797;-78
2023/07/20 14:12:49;;;;;;;;;;;;;;;34.04;25.67;99495.67;107646;1260;68191;-79
2023/07/20 14:15:18;;;;;;;;;;;;;;;33.87;25.57;99489.67;107715;1259;64117;-77
2023/07/20 14:18:05;;;;;;;;;;;;;;;33.77;25.90;99486.14;107649;1259;63119;-77
2023/07/20 14:20:32;;;;;;;;;;;;;;;33.73;26.42;99479.27;107743;1259;62085;-78
2023/07/20 14:22:59;;;;;;;;;;;;;;;33.78;26.10;99480.70;107667;1260;62026;-77
2023/07/20 14:25:26;;;;;;;;;;;;;;;33.94;26.21;99482.13;107740;1259;67011;-77
2023/07/20 14:27:56;;;;;;;;;;;;;;;33.96;26.19;99479.21;107641;1260;63865;-78
2023/07/20 14:30:23;;;;;;;;;;;;;;;33.86;26.34;99478.48;107598;1259;64048;-78
2023/07/20 14:32:51;;;;;;;;;;;;;;;33.64;26.48;99480.79;85519;1266;20005642;-77
2023/07/20 14:35:18;;;;;;;;;;;;;;;33.40;26.47;99484.09;100077;1260;10002277;-74
2023/07/20 14:37:50;;;;;;;;;;;;;;;33.16;27.12;99488.63;107503;1261;73171;-75
2023/07/20 14:40:17;;;;;;;;;;;;;;;32.91;27.35;99490.92;107494;1263;60166;-75
2023/07/20 14:42:44;;;;;;;;;;;;;;;32.66;27.64;99488.40;107580;1259;61961;-77
2023/07/20 14:45:12;;;;;;;;;;;;;;;32.47;27.89;99492.09;107538;1259;66909;-76
2023/07/20 14:47:39;;;;;;;;;;;;;;;32.29;28.53;99493.20;107640;1259;64074;-75